OJAM/ADJ METAR and TAF weather

Enter ICAO airport designator
Station Type Date Time Source
OJAM METAR 2020/09/25 06:00 UTC NOAA

OJAM 250600Z 36003KT 5000 HZ FEW020 20/16 Q1015 NOSIG


Station Type Date Time Source
OJAM Decoded METAR 2020/09/25 06:00 UTC NOAA

Amman Airport, Jordan (OJAM) 31-59N 035-59E 768M
Sep 25, 2020 - 02:00 AM EDT / 2020.09.25 0600 UTC
Wind: from the N (360 degrees) at 3 MPH (3 KT):0
Visibility: 3 mile(s):0
Sky conditions: mostly clear
Weather: haze
Temperature: 68 F (20 C)
Dew Point: 60 F (16 C)
Relative Humidity: 77%
Pressure (altimeter): 29.97 in. Hg (1015 hPa)
ob: OJAM 250600Z 36003KT 5000 HZ FEW020 20/16 Q1015 NOSIG
cycle: 6

Station Type Date Time Source
OJAM TAF 2020/09/25 06:13 UTC NOAA

TAF OJAM 250500Z 2506/2612 29008KT 6000 FEW030 PROB30 2602/2606 VRB01KT 3000 BR

Example: see airport list